Airfield :
LOGIN :

Register | Disclaimer

   EN    FR    IT 

 










Legend :    VFR   Marginal VFR   IFR   Intensive IFR   Very Intensive IFR
Visi :
Ceiling :
>= 8 km
>= 3000ft
5 to 8 km
1000 to 3000 ft
1500m to 5 km
500 to 1000 ft
800 to 1500m
200 to 500 ft
< 800m
< 200 ft
Symbols :   Thunderstorms  Fog  Heavy snow  Heavy precipitations  Wind > 20 kt
SIGMETs :     Misc.  Thunderstorms  Icing  Turbulence  Mountain Waves  Volcanic Ashes






- Airport Elevation : 1535 ft
- IATA code : OUD


GMFO - Ouja Angads

CURRENT METAR :
  • 081100Z 01006KT CAVOK 34/16 Q1019 NOSIG

EXPIRED METARs :
  • 081030Z VRB05KT CAVOK 33/15 Q1020 NOSIG
  • 081000Z 35005KT 260V050 CAVOK 32/17 Q1020 NOSIG
  • 080930Z VRB05KT CAVOK 30/17 Q1020 NOSIG
  • 080900Z 34005KT 270V020 9999 NCD 28/18 Q1020 NOSIG
  • 080830Z 33005KT 270V040 9999 FEW023 27/18 Q1020 NOSIG

TAF COR TAF GMFO
Valid from the 08 at 06:00 until the 09 at 12:00 UTC


080500Z 0806/0912 33006KT CAVOK



MET'MAP, your aeronautical weather chart ! - Copyright ORBIFLY December 2007 - Disclaimer

ORBIFLY MET'MAP TEAM :

Programming & Development : Alexandra Zaïnal
Concept & original design : Baudouin d'Aumeries
Assistance for programming : Marc-Olivier Méhu
Technical & hardware support : Manuel Goepfert

Contact : metmap@orbifly.com




SOURCES & CREDITS :

   NOAA